createdAt,value
2018-04-15T00:01:05.697Z,4.43
2018-04-15T00:03:33.303Z,4.60
2018-04-15T00:06:00.900Z,4.47
2018-04-15T00:08:28.500Z,4.50
2018-04-15T00:10:56.105Z,5.03
2018-04-15T00:13:23.708Z,4.10
2018-04-15T00:15:52.098Z,4.20
2018-04-15T00:18:19.699Z,4.10
2018-04-15T00:20:48.022Z,4.50
2018-04-15T00:23:15.682Z,4.90
2018-04-15T00:25:43.951Z,3.93
2018-04-15T00:28:11.547Z,5.07
2018-04-15T00:30:39.151Z,4.67
2018-04-15T00:33:06.751Z,5.30
2018-04-15T00:35:34.352Z,4.70
2018-04-15T00:38:01.955Z,5.70
2018-04-15T00:40:29.557Z,4.73
2018-04-15T00:42:57.156Z,4.87
2018-04-15T00:45:24.758Z,5.70
2018-04-15T00:47:52.360Z,5.23
2018-04-15T00:50:19.889Z,4.90
2018-04-15T00:52:48.283Z,5.40
2018-04-15T00:55:15.882Z,5.10
2018-04-15T00:57:43.485Z,5.20
2018-04-15T01:00:11.018Z,5.53
2018-04-15T01:02:38.622Z,6.13
2018-04-15T01:05:06.171Z,5.17
2018-04-15T01:07:33.779Z,4.60
2018-04-15T01:10:02.094Z,5.27
2018-04-15T01:12:29.698Z,5.13
2018-04-15T01:14:57.297Z,5.07
2018-04-15T01:17:24.898Z,4.60
2018-04-15T01:19:52.501Z,5.03
2018-04-15T01:22:20.825Z,4.90
2018-04-15T01:24:48.425Z,4.60
2018-04-15T01:27:16.752Z,5.10
2018-04-15T01:29:44.347Z,4.83
2018-04-15T01:32:11.949Z,5.97
2018-04-15T01:34:39.551Z,5.30
2018-04-15T01:37:07.152Z,5.23
2018-04-15T01:39:35.477Z,4.80
2018-04-15T01:42:03.077Z,5.40
2018-04-15T01:44:30.682Z,5.43
2018-04-15T01:46:58.283Z,5.27
2018-04-15T01:49:25.879Z,4.20
2018-04-15T01:51:54.201Z,5.00
2018-04-15T01:54:21.733Z,5.00
2018-04-15T01:56:49.284Z,5.20
2018-04-15T01:59:17.605Z,5.67
2018-04-15T02:01:45.208Z,4.83
2018-04-15T02:04:12.816Z,4.80
2018-04-15T02:06:41.130Z,4.80
2018-04-15T02:09:08.735Z,4.73
2018-04-15T02:11:36.335Z,5.37
2018-04-15T02:14:03.936Z,5.13
2018-04-15T02:16:32.257Z,4.60
2018-04-15T02:18:59.860Z,5.30
2018-04-15T02:21:27.393Z,5.07
2018-04-15T02:23:54.993Z,5.00
2018-04-15T02:26:22.545Z,5.30
2018-04-15T02:28:50.151Z,5.20
2018-04-15T02:31:17.747Z,5.20
2018-04-15T02:33:45.349Z,5.97
2018-04-15T02:36:13.671Z,5.40
2018-04-15T02:38:41.273Z,5.83
2018-04-15T02:41:09.598Z,5.77
2018-04-15T02:43:37.197Z,5.83
2018-04-15T02:46:04.801Z,6.33
2018-04-15T02:48:32.400Z,5.60
2018-04-15T02:50:59.941Z,5.70
2018-04-15T02:53:27.483Z,6.47
2018-04-15T02:55:55.804Z,5.57
2018-04-15T02:58:23.411Z,5.20
2018-04-15T03:00:51.727Z,4.93
2018-04-15T03:03:19.330Z,7.17
2018-04-15T03:05:46.940Z,5.47
2018-04-15T03:08:14.532Z,6.10
2018-04-15T03:10:42.133Z,4.67
2018-04-15T03:13:10.458Z,5.33
2018-04-15T03:15:38.060Z,5.20
2018-04-15T03:18:05.661Z,5.37
2018-04-15T03:20:33.259Z,5.57
2018-04-15T03:23:00.861Z,5.57
2018-04-15T03:25:29.186Z,5.03
2018-04-15T03:27:56.784Z,6.23
2018-04-15T03:30:24.317Z,6.40
2018-04-15T03:32:52.708Z,6.50
2018-04-15T03:35:20.308Z,7.43
2018-04-15T03:37:47.910Z,5.97
2018-04-15T03:40:15.512Z,5.57
2018-04-15T03:42:43.834Z,5.73
2018-04-15T03:45:11.436Z,5.13
2018-04-15T03:47:39.042Z,5.67
2018-04-15T03:50:06.639Z,6.70
2018-04-15T03:52:34.241Z,6.90
2018-04-15T03:55:02.562Z,6.70
2018-04-15T03:57:30.165Z,6.90
2018-04-15T03:59:57.769Z,6.70
2018-04-15T04:02:25.367Z,5.90
2018-04-15T04:04:52.969Z,7.40
2018-04-15T04:07:21.290Z,5.90
2018-04-15T04:09:48.892Z,6.67
2018-04-15T04:12:17.213Z,6.40
2018-04-15T04:14:44.817Z,6.77
2018-04-15T04:17:12.417Z,7.43
2018-04-15T04:19:52.618Z,6.10
2018-04-15T04:22:32.227Z,7.20
2018-04-15T04:25:12.423Z,6.77
2018-04-15T04:27:40.745Z,6.37
2018-04-15T04:30:09.065Z,7.20
2018-04-15T04:32:37.388Z,6.30
2018-04-15T04:35:04.988Z,8.10
2018-04-15T04:37:32.520Z,7.57
2018-04-15T04:40:00.072Z,7.20
2018-04-15T04:42:28.396Z,6.40
2018-04-15T04:44:56.018Z,6.70
2018-04-15T04:47:24.318Z,6.97
2018-04-15T04:49:51.917Z,6.53
2018-04-15T04:52:19.522Z,7.10
2018-04-15T04:54:47.844Z,8.83
2018-04-15T04:57:15.443Z,6.70
2018-04-15T04:59:43.045Z,6.87
2018-04-15T05:02:10.646Z,6.43
2018-04-15T05:04:38.250Z,6.40
2018-04-15T05:07:06.569Z,6.57
2018-04-15T05:09:34.171Z,7.23
2018-04-15T05:12:01.772Z,8.03
2018-04-15T05:14:29.377Z,8.90
2018-04-15T05:16:56.981Z,12.13
2018-04-15T05:19:24.577Z,7.80
2018-04-15T05:21:52.180Z,7.37
2018-04-15T05:24:20.554Z,7.63
2018-04-15T05:26:48.102Z,7.47
2018-04-15T05:29:15.705Z,6.70
2018-04-15T05:31:43.305Z,7.57
2018-04-15T05:34:10.839Z,6.43
2018-04-15T05:36:38.437Z,7.03
2018-04-15T05:39:06.832Z,5.97
2018-04-15T05:41:34.433Z,7.03
2018-04-15T05:44:02.035Z,7.13
2018-04-15T05:46:30.364Z,6.80
2018-04-15T05:48:57.955Z,6.40
2018-04-15T05:51:25.557Z,7.07
2018-04-15T05:53:53.201Z,6.70
2018-04-15T05:56:20.761Z,7.23
2018-04-15T05:58:48.370Z,7.60
2018-04-15T06:01:15.965Z,6.47
2018-04-15T06:03:43.496Z,7.40
2018-04-15T06:06:11.098Z,7.20
2018-04-15T06:08:39.496Z,6.63
2018-04-15T06:11:07.096Z,7.77
2018-04-15T06:13:34.694Z,7.50
2018-04-15T06:16:02.297Z,7.00
2018-04-15T06:18:30.616Z,7.47
2018-04-15T06:20:58.219Z,7.83
2018-04-15T06:23:25.824Z,8.17
2018-04-15T06:25:53.421Z,7.50
2018-04-15T06:28:21.021Z,6.87
2018-04-15T06:30:49.344Z,8.10
2018-04-15T06:33:16.945Z,7.10
2018-04-15T06:35:44.547Z,7.10
2018-04-15T06:38:12.150Z,7.00
2018-04-15T06:40:39.761Z,7.63
2018-04-15T06:43:08.072Z,7.37
2018-04-15T06:45:35.673Z,7.10
2018-04-15T06:48:03.273Z,7.00
2018-04-15T06:50:30.878Z,7.30
2018-04-15T06:52:58.476Z,8.07
2018-04-15T06:55:26.799Z,8.53
2018-04-15T06:57:54.401Z,8.63
2018-04-15T07:00:22.001Z,8.10
2018-04-15T07:02:49.602Z,8.93
2018-04-15T07:05:17.204Z,7.87
2018-04-15T07:07:45.528Z,7.67
2018-04-15T07:10:13.127Z,8.57
2018-04-15T07:12:40.729Z,8.83
2018-04-15T07:15:08.333Z,8.80
2018-04-15T07:17:35.944Z,8.37
2018-04-15T07:20:03.539Z,7.83
2018-04-15T07:22:31.140Z,8.27
2018-04-15T07:24:59.457Z,7.90
2018-04-15T07:27:27.063Z,7.53
2018-04-15T07:29:54.664Z,8.13
2018-04-15T07:32:22.264Z,7.87
2018-04-15T07:34:49.868Z,7.67
2018-04-15T07:37:18.303Z,7.90
2018-04-15T07:39:45.910Z,7.93
2018-04-15T07:42:14.230Z,7.63
2018-04-15T07:44:41.832Z,7.83
2018-04-15T07:47:09.430Z,7.40
2018-04-15T07:49:37.033Z,7.83
2018-04-15T07:52:04.633Z,8.13
2018-04-15T07:54:32.956Z,7.80
2018-04-15T07:57:00.558Z,8.00
2018-04-15T07:59:28.163Z,8.60
2018-04-15T08:01:55.761Z,7.70
2018-04-15T08:04:23.362Z,8.13
2018-04-15T08:06:51.684Z,7.60
2018-04-15T08:09:19.295Z,7.60
2018-04-15T08:11:47.606Z,7.90
2018-04-15T08:14:15.209Z,7.43
2018-04-15T08:16:42.811Z,7.20
2018-04-15T08:19:10.413Z,7.20
2018-04-15T08:21:38.014Z,8.30
2018-04-15T08:24:06.335Z,7.37
2018-04-15T08:26:33.936Z,8.97
2018-04-15T08:29:01.537Z,7.60
2018-04-15T08:31:29.139Z,7.97
2018-04-15T08:33:56.741Z,7.40
2018-04-15T08:36:25.061Z,7.80
2018-04-15T08:38:52.664Z,8.03
2018-04-15T08:41:20.270Z,7.87
2018-04-15T08:43:47.867Z,8.30
2018-04-15T08:46:15.471Z,7.80
2018-04-15T08:48:43.790Z,8.33
2018-04-15T08:51:11.393Z,7.90
2018-04-15T08:53:38.994Z,8.30
2018-04-15T08:56:06.595Z,8.80
2018-04-15T08:58:34.197Z,7.50
2018-04-15T09:01:02.517Z,9.43
2018-04-15T09:03:30.120Z,9.20
2018-04-15T09:05:58.443Z,8.00
2018-04-15T09:08:26.042Z,8.90
2018-04-15T09:10:53.645Z,10.20
2018-04-15T09:13:21.246Z,9.73
2018-04-15T09:15:48.846Z,8.70
2018-04-15T09:18:17.351Z,8.77
2018-04-15T09:20:45.015Z,9.53
2018-04-15T09:23:12.687Z,8.83
2018-04-15T09:25:40.214Z,9.50
2018-04-15T09:28:08.535Z,10.40
2018-04-15T09:30:41.899Z,10.40
2018-04-15T09:33:10.218Z,9.70
2018-04-15T09:35:37.884Z,9.30
2018-04-15T09:38:06.142Z,9.87
2018-04-15T09:40:33.744Z,8.73
2018-04-15T09:43:01.343Z,9.63
2018-04-15T09:45:28.945Z,8.60
2018-04-15T09:47:56.552Z,9.03
2018-04-15T09:50:24.869Z,8.33
2018-04-15T09:52:52.476Z,9.30
2018-04-15T09:55:20.079Z,9.17
2018-04-15T09:57:47.670Z,9.30
2018-04-15T10:00:19.232Z,8.77
2018-04-15T10:02:46.835Z,9.20
2018-04-15T10:05:15.156Z,9.83
2018-04-15T10:07:42.757Z,9.00
2018-04-15T10:10:10.361Z,8.70
2018-04-15T10:12:37.960Z,8.73
2018-04-15T10:15:05.562Z,7.97
2018-04-15T10:17:33.884Z,7.90
2018-04-15T10:20:01.490Z,7.63
2018-04-15T10:22:29.807Z,8.00
2018-04-15T10:24:57.408Z,7.33
2018-04-15T10:27:25.010Z,7.20
2018-04-15T10:29:52.612Z,7.00
2018-04-15T10:32:20.217Z,8.73
2018-04-15T10:34:48.541Z,7.67
2018-04-15T10:37:16.141Z,8.13
2018-04-15T10:39:43.740Z,8.00
2018-04-15T10:42:11.343Z,7.80
2018-04-15T10:44:38.944Z,7.43
2018-04-15T10:47:07.267Z,7.70
2018-04-15T10:49:34.866Z,6.80
2018-04-15T10:52:02.472Z,7.00
2018-04-15T10:54:30.072Z,6.60
2018-04-15T10:56:57.672Z,8.17
2018-04-15T10:59:25.992Z,7.90
2018-04-15T11:01:53.595Z,7.00
2018-04-15T11:04:21.196Z,7.63
2018-04-15T11:06:48.798Z,6.77
2018-04-15T11:09:16.399Z,7.37
2018-04-15T11:11:44.720Z,7.20
2018-04-15T11:14:12.342Z,7.40
2018-04-15T11:16:41.418Z,7.13
2018-04-15T11:19:09.012Z,7.40
2018-04-15T11:21:37.291Z,6.83
2018-04-15T11:24:04.888Z,8.23
2018-04-15T11:26:32.491Z,7.63
2018-04-15T11:29:00.815Z,8.47
2018-04-15T11:31:28.414Z,8.70
2018-04-15T11:33:56.014Z,7.87
2018-04-15T11:36:23.616Z,9.10
2018-04-15T11:38:51.217Z,8.87
2018-04-15T11:41:19.539Z,8.40
2018-04-15T11:43:47.140Z,9.57
2018-04-15T11:46:15.461Z,8.57
2018-04-15T11:48:43.064Z,8.80
2018-04-15T11:51:10.667Z,8.70
2018-04-15T11:53:38.269Z,8.27
2018-04-15T11:56:05.867Z,9.70
2018-04-15T11:58:34.204Z,10.90
2018-04-15T12:01:01.793Z,8.10
2018-04-15T12:03:29.395Z,8.60
2018-04-15T12:05:56.993Z,8.17
2018-04-15T12:08:24.597Z,8.90
2018-04-15T12:10:52.917Z,8.87
2018-04-15T12:13:20.520Z,9.23
2018-04-15T12:15:48.123Z,9.33
2018-04-15T12:18:15.723Z,13.50
2018-04-15T12:20:43.331Z,11.07
2018-04-15T12:23:11.647Z,11.00
2018-04-15T12:25:39.249Z,8.70
2018-04-15T12:28:06.848Z,8.93
2018-04-15T12:30:34.453Z,8.60
2018-04-15T12:33:02.053Z,8.40
2018-04-15T12:35:29.658Z,7.53
2018-04-15T12:37:57.257Z,9.03
2018-04-15T12:40:24.870Z,11.00
2018-04-15T12:42:52.460Z,7.57
2018-04-15T12:45:20.065Z,8.33
2018-04-15T12:47:47.663Z,8.00
2018-04-15T12:50:15.266Z,7.93
2018-04-15T12:52:43.586Z,8.60
2018-04-15T12:55:11.188Z,7.50
2018-04-15T12:57:38.791Z,7.20
2018-04-15T13:00:06.392Z,10.20
2018-04-15T13:02:33.992Z,7.97
2018-04-15T13:05:02.313Z,9.27
2018-04-15T13:07:29.917Z,9.07
2018-04-15T13:09:57.518Z,8.00
2018-04-15T13:12:25.122Z,9.23
2018-04-15T13:14:52.719Z,8.97
2018-04-15T13:17:21.040Z,9.87
2018-04-15T13:19:48.643Z,7.70
2018-04-15T13:22:16.281Z,7.23
2018-04-15T13:24:43.848Z,9.70
2018-04-15T13:27:11.447Z,7.30
2018-04-15T13:29:39.775Z,8.13
2018-04-15T13:32:07.370Z,8.70
2018-04-15T13:34:34.972Z,8.93
2018-04-15T13:37:02.573Z,9.40
2018-04-15T13:39:30.175Z,7.67
2018-04-15T13:41:58.497Z,8.57
2018-04-15T13:44:26.098Z,8.00
2018-04-15T13:46:54.482Z,9.03
2018-04-15T13:49:22.026Z,8.20
2018-04-15T13:51:49.622Z,11.27
2018-04-15T13:54:17.232Z,7.50
2018-04-15T13:56:44.825Z,7.67
2018-04-15T13:59:13.148Z,9.43
2018-04-15T14:01:40.748Z,10.97
2018-04-15T14:04:08.351Z,14.73
2018-04-15T14:06:35.952Z,13.50
2018-04-15T14:09:04.275Z,11.97
2018-04-15T14:11:32.596Z,8.60
2018-04-15T14:14:00.196Z,7.40
2018-04-15T14:16:27.798Z,7.53
2018-04-15T14:18:55.399Z,7.83
2018-04-15T14:21:23.002Z,7.70
2018-04-15T14:23:51.331Z,6.10
2018-04-15T14:26:18.924Z,7.17
2018-04-15T14:28:47.248Z,7.47
2018-04-15T14:31:14.847Z,6.40
2018-04-15T14:33:42.449Z,7.73
2018-04-15T14:36:10.052Z,8.43
2018-04-15T14:38:37.652Z,7.57
2018-04-15T14:41:05.975Z,12.90
2018-04-15T14:43:33.575Z,8.70
2018-04-15T14:46:01.178Z,8.70
2018-04-15T14:48:28.777Z,8.73
2018-04-15T14:50:56.383Z,8.70
2018-04-15T14:53:24.702Z,8.00
2018-04-15T14:55:52.303Z,7.70
2018-04-15T14:58:19.908Z,12.03
2018-04-15T15:00:47.508Z,7.70
2018-04-15T15:03:15.108Z,13.30
2018-04-15T15:05:43.436Z,17.90
2018-04-15T15:08:11.034Z,8.93
2018-04-15T15:10:39.354Z,13.93
2018-04-15T15:13:06.955Z,14.40
2018-04-15T15:15:34.557Z,9.80
2018-04-15T15:18:02.159Z,9.43
2018-04-15T15:20:29.759Z,9.47
2018-04-15T15:22:58.080Z,13.97
2018-04-15T15:25:25.684Z,12.47
2018-04-15T15:27:53.284Z,10.33
2018-04-15T15:30:20.886Z,9.30
2018-04-15T15:32:48.486Z,9.40
2018-04-15T15:35:16.810Z,9.90
2018-04-15T15:37:44.410Z,10.03
2018-04-15T15:40:12.018Z,10.57
2018-04-15T15:42:39.614Z,15.70
2018-04-15T15:45:07.215Z,9.90
2018-04-15T15:47:35.539Z,9.20
2018-04-15T15:50:03.139Z,9.40
2018-04-15T15:52:30.744Z,9.10
2018-04-15T15:54:59.064Z,9.60
2018-04-15T15:57:26.669Z,8.50
2018-04-15T15:59:54.263Z,10.00
2018-04-15T16:02:21.866Z,9.30
2018-04-15T16:04:49.467Z,9.13
2018-04-15T16:07:17.073Z,9.00
2018-04-15T16:09:44.671Z,8.17
2018-04-15T16:12:12.277Z,9.20
2018-04-15T16:14:39.872Z,9.33
2018-04-15T16:17:08.195Z,7.87
2018-04-15T16:19:35.797Z,8.67
2018-04-15T16:22:03.400Z,8.97
2018-04-15T16:24:31.002Z,9.00
2018-04-15T16:26:58.601Z,8.10
2018-04-15T16:29:26.922Z,7.80
2018-04-15T16:31:54.524Z,9.13
2018-04-15T16:34:23.448Z,8.13
2018-04-15T16:36:51.048Z,8.33
2018-04-15T16:39:18.890Z,8.10
2018-04-15T16:41:46.490Z,8.87
2018-04-15T16:44:14.092Z,7.50
2018-04-15T16:46:42.411Z,6.73
2018-04-15T16:49:10.016Z,7.27
2018-04-15T16:51:37.617Z,7.60
2018-04-15T16:54:05.242Z,7.47
2018-04-15T16:56:32.820Z,6.63
2018-04-15T16:59:01.141Z,5.97
2018-04-15T17:01:28.743Z,7.03
2018-04-15T17:03:57.065Z,6.50
2018-04-15T17:06:24.667Z,6.57
2018-04-15T17:08:52.268Z,5.80
2018-04-15T17:11:19.928Z,5.97
2018-04-15T17:13:47.471Z,5.70
2018-04-15T17:16:15.790Z,6.63
2018-04-15T17:18:43.394Z,12.67
2018-04-15T17:21:10.995Z,16.00
2018-04-15T17:23:38.598Z,17.67
2018-04-15T17:26:06.203Z,16.33
2018-04-15T17:28:33.798Z,12.63
2018-04-15T17:31:02.962Z,12.57
2018-04-15T17:33:31.284Z,15.30
2018-04-15T17:35:58.884Z,10.30
2018-04-15T17:38:27.206Z,9.70
2018-04-15T17:40:54.831Z,14.40
2018-04-15T17:43:22.408Z,23.13
2018-04-15T17:45:50.046Z,26.50
2018-04-15T17:48:17.614Z,14.70
2018-04-15T17:50:45.934Z,8.93
2018-04-15T17:53:13.536Z,8.20
2018-04-15T17:55:41.136Z,6.13
2018-04-15T17:58:08.738Z,8.50
2018-04-15T18:00:36.341Z,8.77
2018-04-15T18:03:04.663Z,8.90
2018-04-15T18:05:32.269Z,11.90
2018-04-15T18:08:00.595Z,11.37
2018-04-15T18:10:28.188Z,11.33
2018-04-15T18:12:55.788Z,10.10
2018-04-15T18:15:24.128Z,8.57
2018-04-15T18:17:51.712Z,7.90
2018-04-15T18:20:19.312Z,7.40
2018-04-15T18:22:46.941Z,5.40
2018-04-15T18:25:14.517Z,6.20
2018-04-15T18:27:42.120Z,6.17
2018-04-15T18:30:09.719Z,6.87
2018-04-15T18:32:37.319Z,6.27
2018-04-15T18:35:04.925Z,10.30
2018-04-15T18:37:32.531Z,8.07
2018-04-15T18:40:00.126Z,5.73
2018-04-15T18:42:27.729Z,4.90
2018-04-15T18:44:56.049Z,5.10
2018-04-15T18:47:23.655Z,7.03
2018-04-15T18:49:51.258Z,6.43
2018-04-15T18:52:18.856Z,7.00
2018-04-15T18:54:46.457Z,6.03
2018-04-15T18:57:14.778Z,8.07
2018-04-15T18:59:42.379Z,7.87
2018-04-15T19:02:09.988Z,9.17
2018-04-15T19:04:37.584Z,9.70
2018-04-15T19:07:05.186Z,21.60
2018-04-15T19:09:33.510Z,20.73
2018-04-15T19:12:01.112Z,17.80
2018-04-15T19:14:28.710Z,9.93
2018-04-15T19:16:56.312Z,9.07
2018-04-15T19:19:23.915Z,9.07
2018-04-15T19:21:52.234Z,10.23
2018-04-15T19:24:19.834Z,9.40
2018-04-15T19:26:47.438Z,13.90
2018-04-15T19:29:15.038Z,14.43
2018-04-15T19:31:42.643Z,10.43
2018-04-15T19:34:10.241Z,10.40
2018-04-15T19:36:37.951Z,9.53
2018-04-15T19:39:06.173Z,9.13
2018-04-15T19:41:33.767Z,8.60
2018-04-15T19:44:01.383Z,8.70
2018-04-15T19:46:28.973Z,12.80
2018-04-15T19:48:56.572Z,12.03
2018-04-15T19:51:24.895Z,8.17
2018-04-15T19:53:52.497Z,8.73
2018-04-15T19:56:20.097Z,7.90
2018-04-15T19:58:47.698Z,9.23
2018-04-15T20:01:15.299Z,7.60
2018-04-15T20:03:43.622Z,8.60
2018-04-15T20:06:11.224Z,7.50
2018-04-15T20:08:39.544Z,7.90
2018-04-15T20:11:07.145Z,8.67
2018-04-15T20:13:34.747Z,9.10
2018-04-15T20:16:03.069Z,7.40
2018-04-15T20:18:30.674Z,7.80
2018-04-15T20:20:58.996Z,8.40
2018-04-15T20:23:26.596Z,7.30
2018-04-15T20:25:54.195Z,7.20
2018-04-15T20:28:21.798Z,7.07
2018-04-15T20:30:49.397Z,7.53
2018-04-15T20:33:17.720Z,7.53
2018-04-15T20:35:45.320Z,6.73
2018-04-15T20:38:12.922Z,6.60
2018-04-15T20:40:40.523Z,6.57
2018-04-15T20:43:08.125Z,7.50
2018-04-15T20:45:35.731Z,6.70
2018-04-15T20:48:03.328Z,6.43
2018-04-15T22:12:28.104Z,7.07
2018-04-15T22:14:55.703Z,7.00
2018-04-15T22:17:23.311Z,7.20
2018-04-15T22:19:50.910Z,6.73
2018-04-15T22:22:19.231Z,6.97
2018-04-15T22:24:46.830Z,6.10
2018-04-15T22:27:14.431Z,6.70
2018-04-15T22:29:41.970Z,6.10
2018-04-15T22:32:09.593Z,6.23
2018-04-15T22:34:37.957Z,6.13
2018-04-15T22:37:05.559Z,6.10
2018-04-15T22:39:33.882Z,6.30
2018-04-15T22:42:01.480Z,7.13
2018-04-15T22:44:29.083Z,6.30
2018-04-15T22:46:56.687Z,6.80
2018-04-15T22:49:24.287Z,6.80
2018-04-15T22:51:52.607Z,6.50
2018-04-15T22:54:20.210Z,6.07
2018-04-15T22:56:47.812Z,5.50
2018-04-15T22:59:15.414Z,5.40
2018-04-15T23:01:43.016Z,6.00
2018-04-15T23:04:11.337Z,5.47
2018-04-15T23:06:38.939Z,5.40
2018-04-15T23:09:06.538Z,5.83
2018-04-15T23:11:34.141Z,4.73
2018-04-15T23:14:01.746Z,5.50
2018-04-15T23:16:30.063Z,5.53
2018-04-15T23:18:57.666Z,5.47
2018-04-15T23:21:25.267Z,5.90
2018-04-15T23:23:52.871Z,6.50
2018-04-15T23:26:20.472Z,6.20
2018-04-15T23:28:48.072Z,6.87
2018-04-15T23:31:15.677Z,6.60
2018-04-15T23:33:43.998Z,6.40
2018-04-15T23:36:11.598Z,6.43
2018-04-15T23:38:39.200Z,6.90
2018-04-15T23:41:06.801Z,7.20
2018-04-15T23:43:34.409Z,7.20
2018-04-15T23:46:02.723Z,7.43
2018-04-15T23:48:30.325Z,6.07
2018-04-15T23:50:57.927Z,6.17
2018-04-15T23:53:25.528Z,6.00
2018-04-15T23:55:53.850Z,6.57
2018-04-15T23:58:22.173Z,5.90
